Time;durP1;ratioP1;P1;durP2;ratioP2;P2;SDS_P1;SDS_P2;PMS_P1;PMS_P2;Temp;Humidity;BMP_temperature;BMP_pressure;BME280_temperature;BME280_humidity;BME280_pressure;Samples;Min_cycle;Max_cycle;Signal;HPM_P1;HPM_P2
2022/05/13 00:02:00;;;;;;;5.43;4.03;;;15.40;99.90;;;;;;5028482;28;20501;-72
2022/05/13 00:04:26;;;;;;;8.90;4.33;;;15.30;99.90;;;;;;5037071;28;20504;-72
2022/05/13 00:06:53;;;;;;;7.47;3.60;;;15.20;99.90;;;;;;5047477;28;20501;-72
2022/05/13 00:09:21;;;;;;;7.57;4.03;;;15.20;99.90;;;;;;5052067;28;20449;-72
2022/05/13 00:11:48;;;;;;;7.70;3.37;;;15.10;99.90;;;;;;5052511;28;21098;-72
2022/05/13 00:14:16;;;;;;;10.97;3.87;;;15.00;99.90;;;;;;5041040;28;20474;-72
2022/05/13 00:16:43;;;;;;;6.27;4.10;;;14.90;99.90;;;;;;5032845;28;20424;-72
2022/05/13 00:19:10;;;;;;;8.17;4.00;;;14.90;99.90;;;;;;5032729;28;20454;-72
2022/05/13 00:21:37;;;;;;;9.67;3.97;;;14.80;99.90;;;;;;5032312;28;20848;-72
2022/05/13 00:24:04;;;;;;;6.60;3.57;;;14.70;99.90;;;;;;5032308;28;20453;-72
2022/05/13 00:26:31;;;;;;;6.73;3.70;;;14.60;99.90;;;;;;5032013;28;20525;-74
2022/05/13 00:28:58;;;;;;;4.43;3.40;;;14.60;99.90;;;;;;5033617;28;20511;-72
2022/05/13 00:31:25;;;;;;;5.17;3.80;;;14.50;99.90;;;;;;5040587;28;20469;-72
2022/05/13 00:33:53;;;;;;;11.20;3.77;;;14.50;99.90;;;;;;5032327;28;20925;-72
2022/05/13 00:36:20;;;;;;;6.20;4.23;;;14.40;99.90;;;;;;5032587;28;20449;-72
2022/05/13 00:38:47;;;;;;;7.93;4.20;;;14.40;99.90;;;;;;5039479;28;20503;-72
2022/05/13 00:41:14;;;;;;;5.20;4.10;;;14.30;99.90;;;;;;5032169;28;20852;-72
2022/05/13 00:43:45;;;;;;;6.60;5.03;;;14.30;99.90;;;;;;5020174;28;20448;-72
2022/05/13 00:46:12;;;;;;;9.33;4.43;;;14.20;99.90;;;;;;5021352;28;20484;-72
2022/05/13 00:48:40;;;;;;;7.37;4.47;;;14.20;99.90;;;;;;5044355;28;20944;-72
2022/05/13 00:51:10;;;;;;;6.27;4.47;;;14.10;99.90;;;;;;5038729;28;20469;-72
2022/05/13 00:53:37;;;;;;;11.03;4.97;;;14.00;99.90;;;;;;5048753;28;20448;-72
2022/05/13 00:56:05;;;;;;;5.20;4.40;;;13.90;99.90;;;;;;5032072;28;20484;-72
2022/05/13 00:58:34;;;;;;;9.83;5.20;;;13.90;99.90;;;;;;5033438;28;20499;-72
2022/05/13 01:01:01;;;;;;;9.53;5.03;;;13.90;99.90;;;;;;5029910;28;20895;-72
2022/05/13 01:03:27;;;;;;;5.23;4.73;;;13.70;99.90;;;;;;5045147;28;20514;-72
2022/05/13 01:05:59;;;;;;;5.63;4.50;;;13.60;99.90;;;;;;5042348;28;20456;-72
2022/05/13 01:08:27;;;;;;;8.87;4.70;;;13.50;99.90;;;;;;5031449;28;20954;-72
2022/05/13 01:10:56;;;;;;;9.70;5.20;;;13.40;99.90;;;;;;5032320;28;20477;-72
2022/05/13 01:13:28;;;;;;;10.70;5.47;;;13.30;99.90;;;;;;5046825;28;20453;-73
2022/05/13 01:15:55;;;;;;;8.50;5.10;;;13.30;99.90;;;;;;5044163;28;20457;-72
2022/05/13 01:18:26;;;;;;;6.63;5.30;;;13.30;99.90;;;;;;5031837;28;20941;-72
2022/05/13 01:20:53;;;;;;;13.80;4.97;;;13.20;99.90;;;;;;5031507;28;20484;-72
2022/05/13 01:23:23;;;;;;;5.33;4.83;;;13.20;99.90;;;;;;5030993;28;20536;-72
2022/05/13 01:25:53;;;;;;;10.67;5.70;;;13.10;99.90;;;;;;5033616;28;20453;-72
2022/05/13 01:28:22;;;;;;;8.57;5.30;;;13.10;99.90;;;;;;5049588;28;20873;-72
2022/05/13 01:30:51;;;;;;;10.00;5.73;;;13.00;99.90;;;;;;5017226;28;20504;-72
2022/05/13 01:33:18;;;;;;;17.27;6.27;;;13.00;99.90;;;;;;5044447;28;20517;-72
2022/05/13 01:35:47;;;;;;;6.40;5.33;;;12.90;99.90;;;;;;5046509;28;20453;-73
2022/05/13 01:38:17;;;;;;;8.20;4.87;;;12.80;99.90;;;;;;5031731;28;20532;-72
2022/05/13 01:40:45;;;;;;;9.90;5.23;;;12.80;99.90;;;;;;5031253;28;20458;-72
2022/05/13 01:43:12;;;;;;;7.57;5.03;;;12.70;99.90;;;;;;5047793;28;20464;-72
2022/05/13 01:45:39;;;;;;;6.13;5.40;;;12.70;99.90;;;;;;5045032;28;20461;-72
2022/05/13 01:48:08;;;;;;;8.17;5.30;;;12.70;99.90;;;;;;5031197;28;20481;-72
2022/05/13 01:50:35;;;;;;;5.77;5.27;;;12.70;99.90;;;;;;5011896;28;20450;-72
2022/05/13 01:53:01;;;;;;;9.00;5.30;;;12.70;99.90;;;;;;5032830;28;20510;-73
2022/05/13 01:55:28;;;;;;;9.80;5.60;;;12.60;99.90;;;;;;5046966;28;20461;-72
2022/05/13 01:57:56;;;;;;;9.77;5.80;;;12.50;99.90;;;;;;5031076;28;20449;-72
2022/05/13 02:00:23;;;;;;;9.00;6.67;;;12.50;99.90;;;;;;5030140;28;20460;-72
2022/05/13 02:05:34;;;;;;;10.10;5.57;;;12.40;99.90;;;;;;5031675;28;20567;-72
2022/05/13 02:08:01;;;;;;;8.97;5.50;;;12.30;99.90;;;;;;5030896;28;20539;-72
2022/05/13 02:10:28;;;;;;;11.93;5.50;;;12.40;99.90;;;;;;5031192;28;20507;-72
2022/05/13 02:12:56;;;;;;;7.17;5.43;;;12.30;99.90;;;;;;5031069;28;20512;-72
2022/05/13 02:15:23;;;;;;;10.20;6.17;;;12.30;99.90;;;;;;5013126;28;20555;-72
2022/05/13 02:17:50;;;;;;;8.80;5.77;;;12.30;99.90;;;;;;5039892;28;20494;-72
2022/05/13 02:20:17;;;;;;;9.50;6.00;;;12.30;99.90;;;;;;5045396;28;20515;-72
2022/05/13 02:22:43;;;;;;;11.97;5.97;;;12.20;99.90;;;;;;5030693;28;20882;-72
2022/05/13 02:25:11;;;;;;;11.57;6.10;;;12.10;99.90;;;;;;5040215;28;20457;-72
2022/05/13 02:27:38;;;;;;;8.27;5.60;;;12.10;99.90;;;;;;5031110;28;20532;-72
2022/05/13 02:30:07;;;;;;;8.03;5.70;;;11.90;99.90;;;;;;5030823;28;20507;-72
2022/05/13 02:32:34;;;;;;;11.93;6.20;;;11.90;99.90;;;;;;5017703;28;20473;-72
2022/05/13 02:35:00;;;;;;;8.80;6.50;;;11.80;99.90;;;;;;5048285;28;20517;-72
2022/05/13 02:37:27;;;;;;;7.83;5.90;;;11.80;99.90;;;;;;5023850;28;21011;-72
2022/05/13 02:39:54;;;;;;;8.93;6.30;;;11.70;99.90;;;;;;5047083;28;20460;-72
2022/05/13 02:42:21;;;;;;;10.50;6.40;;;11.70;99.90;;;;;;5031051;28;20469;-72
2022/05/13 02:44:47;;;;;;;8.53;7.03;;;11.70;99.90;;;;;;5030104;28;20460;-72
2022/05/13 02:47:15;;;;;;;9.50;7.20;;;11.60;99.90;;;;;;5037544;28;20484;-72
2022/05/13 02:49:42;;;;;;;10.93;6.80;;;11.60;99.90;;;;;;5035590;28;20454;-72
2022/05/13 02:52:10;;;;;;;7.87;6.43;;;11.50;99.90;;;;;;5030611;28;20477;-72
2022/05/13 02:54:37;;;;;;;8.87;6.53;;;11.50;99.90;;;;;;5036286;28;20444;-72
2022/05/13 02:57:05;;;;;;;9.20;5.57;;;11.40;99.90;;;;;;5050775;28;20460;-72
2022/05/13 02:59:31;;;;;;;9.73;6.57;;;11.40;99.90;;;;;;5049498;28;20449;-72
2022/05/13 03:01:58;;;;;;;7.17;6.20;;;11.30;99.90;;;;;;5050863;28;20476;-72
2022/05/13 03:04:26;;;;;;;8.10;5.87;;;11.30;99.90;;;;;;5032912;28;20465;-72
2022/05/13 03:06:53;;;;;;;14.40;6.50;;;11.30;99.90;;;;;;5035679;28;20507;-72
2022/05/13 03:09:20;;;;;;;6.80;6.10;;;11.30;99.90;;;;;;5030982;28;20505;-72
2022/05/13 03:11:46;;;;;;;13.93;6.83;;;11.20;99.90;;;;;;5047643;28;20491;-72
2022/05/13 03:14:13;;;;;;;8.87;6.27;;;11.20;99.90;;;;;;5034705;28;20457;-72
2022/05/13 03:16:40;;;;;;;9.77;6.33;;;11.20;99.90;;;;;;5033599;28;20499;-71
2022/05/13 03:19:07;;;;;;;7.90;5.17;;;11.10;99.90;;;;;;5038491;28;20837;-72
2022/05/13 03:21:35;;;;;;;10.20;4.93;;;11.10;99.90;;;;;;5034086;28;20477;-72
2022/05/13 03:24:02;;;;;;;10.67;4.30;;;11.10;99.90;;;;;;5033486;28;20453;-72
2022/05/13 03:26:29;;;;;;;7.87;3.80;;;11.20;99.90;;;;;;5033969;28;20457;-72
2022/05/13 03:28:55;;;;;;;4.70;3.07;;;11.40;99.90;;;;;;5042947;28;20522;-72
2022/05/13 03:31:22;;;;;;;7.83;4.20;;;11.60;99.90;;;;;;5042156;28;20546;-73
2022/05/13 03:33:49;;;;;;;7.60;3.60;;;11.80;99.90;;;;;;5032897;28;21015;-72
2022/05/13 03:36:15;;;;;;;6.70;3.60;;;12.00;99.90;;;;;;5033739;28;20449;-72
2022/05/13 03:38:43;;;;;;;12.00;4.07;;;12.20;99.90;;;;;;5046991;28;20449;-72
2022/05/13 03:41:10;;;;;;;7.30;3.70;;;12.30;99.90;;;;;;5053699;28;20681;-72
2022/05/13 03:43:38;;;;;;;5.33;3.13;;;12.40;99.90;;;;;;5037992;28;20504;-72
2022/05/13 03:46:05;;;;;;;13.60;3.97;;;12.40;99.90;;;;;;5033598;28;20461;-72
2022/05/13 03:48:31;;;;;;;12.33;3.50;;;12.60;99.90;;;;;;5044211;28;20480;-72
2022/05/13 03:50:58;;;;;;;15.40;3.83;;;12.70;99.90;;;;;;5033650;28;20884;-72
2022/05/13 03:53:25;;;;;;;7.70;3.90;;;12.70;99.90;;;;;;5044755;28;20511;-72
2022/05/13 03:55:53;;;;;;;8.60;3.30;;;12.80;99.90;;;;;;5053521;28;20483;-72
2022/05/13 03:58:20;;;;;;;5.00;3.43;;;12.80;99.90;;;;;;5042369;28;20518;-73
2022/05/13 04:00:46;;;;;;;4.13;3.20;;;12.80;99.90;;;;;;5032826;28;20473;-72
2022/05/13 04:03:14;;;;;;;11.73;4.07;;;12.90;99.90;;;;;;5049557;28;20463;-73
2022/05/13 04:11:13;;;;;;;6.10;3.50;;;12.90;99.90;;;;;;5027574;28;20462;-73
2022/05/13 04:16:24;;;;;;;12.67;4.00;;;12.90;99.90;;;;;;5043908;28;20435;-73
2022/05/13 04:18:53;;;;;;;11.10;3.40;;;13.00;99.90;;;;;;5038277;28;20453;-72
2022/05/13 04:21:21;;;;;;;10.43;4.10;;;13.00;99.90;;;;;;5032028;28;20474;-72
2022/05/13 04:23:50;;;;;;;3.70;3.30;;;13.00;99.90;;;;;;5032364;28;20849;-72
2022/05/13 04:26:18;;;;;;;7.70;3.77;;;13.00;99.90;;;;;;5032929;28;20461;-72
2022/05/13 04:28:46;;;;;;;6.70;3.80;;;13.00;99.90;;;;;;5046170;28;20537;-72
2022/05/13 04:31:14;;;;;;;7.87;4.00;;;13.00;99.90;;;;;;5040694;28;20481;-72
2022/05/13 04:33:41;;;;;;;6.30;3.30;;;13.00;99.90;;;;;;5038266;28;20456;-72
2022/05/13 04:36:08;;;;;;;10.27;3.70;;;13.10;99.90;;;;;;5038094;28;21018;-72
2022/05/13 04:38:35;;;;;;;7.83;4.00;;;13.00;99.90;;;;;;5040532;28;20449;-72
2022/05/13 04:42:49;;;;;;;10.23;4.07;;;13.10;99.90;;;;;;5027119;28;20521;-72
2022/05/13 04:43:50;;;;;;;6.00;2.80;;;13.10;99.90;;;;;;5031922;28;20449;-73
2022/05/13 04:46:18;;;;;;;6.73;3.83;;;13.10;99.90;;;;;;5042839;28;20444;-72
2022/05/13 04:48:46;;;;;;;5.33;3.27;;;13.20;99.90;;;;;;5036690;28;20481;-72
2022/05/13 04:51:13;;;;;;;10.70;3.90;;;13.20;99.90;;;;;;5032106;28;20516;-73
2022/05/13 04:53:40;;;;;;;6.53;3.47;;;13.20;99.90;;;;;;5031596;28;20453;-72
2022/05/13 04:56:09;;;;;;;10.63;4.07;;;13.20;99.90;;;;;;5039321;28;20457;-73
2022/05/13 04:58:36;;;;;;;11.27;4.00;;;13.20;99.90;;;;;;5045885;28;20859;-70
2022/05/13 05:01:05;;;;;;;6.50;3.47;;;13.30;99.90;;;;;;5025270;28;20470;-70
2022/05/13 05:03:32;;;;;;;8.20;3.50;;;13.30;99.90;;;;;;5032746;28;20507;-70
2022/05/13 05:06:00;;;;;;;9.93;4.00;;;13.40;99.90;;;;;;5031904;28;20816;-70
2022/05/13 05:08:28;;;;;;;8.40;3.93;;;13.40;99.90;;;;;;5044556;28;20476;-70
2022/05/13 05:10:55;;;;;;;15.10;3.83;;;13.50;99.90;;;;;;5052008;28;20828;-70
2022/05/13 05:13:24;;;;;;;6.97;3.97;;;13.60;99.90;;;;;;5045702;28;20878;-70
2022/05/13 05:15:51;;;;;;;19.30;3.90;;;13.70;99.90;;;;;;5031902;28;20461;-74
2022/05/13 05:18:19;;;;;;;9.93;3.90;;;13.80;99.90;;;;;;5031144;28;20450;-70
2022/05/13 05:20:47;;;;;;;5.40;3.10;;;13.80;99.90;;;;;;5032635;28;20473;-70
2022/05/13 05:23:14;;;;;;;5.67;3.80;;;13.90;99.90;;;;;;5032252;28;20457;-70
2022/05/13 05:25:42;;;;;;;5.93;3.63;;;13.90;99.90;;;;;;5031750;28;20460;-70
2022/05/13 05:28:09;;;;;;;14.03;4.23;;;14.00;99.90;;;;;;5034763;28;20537;-70
2022/05/13 05:30:37;;;;;;;8.70;3.90;;;14.10;99.90;;;;;;5028514;28;20496;-70
2022/05/13 05:33:04;;;;;;;6.93;4.10;;;14.20;99.90;;;;;;5043746;28;20543;-70
2022/05/13 05:35:33;;;;;;;13.60;4.30;;;14.20;99.90;;;;;;5045323;28;20496;-70
2022/05/13 05:38:00;;;;;;;6.90;4.07;;;14.20;99.90;;;;;;5035382;28;20523;-70
2022/05/13 05:40:27;;;;;;;4.90;3.50;;;14.30;99.90;;;;;;5031970;28;20520;-70
2022/05/13 05:42:54;;;;;;;10.00;4.13;;;14.40;99.90;;;;;;5036988;28;20498;-71
2022/05/13 05:45:22;;;;;;;9.40;4.30;;;14.60;99.90;;;;;;5033901;28;20476;-70
2022/05/13 05:47:49;;;;;;;7.83;3.50;;;14.70;99.90;;;;;;5029372;28;20527;-71
2022/05/13 05:50:18;;;;;;;4.70;3.20;;;14.80;99.90;;;;;;5031090;28;20496;-71
2022/05/13 05:52:47;;;;;;;8.80;4.03;;;14.80;99.90;;;;;;5027119;28;20469;-70
2022/05/13 05:58:01;;;;;;;6.50;2.83;;;15.20;99.90;;;;;;5033088;28;21027;-70
2022/05/13 06:00:29;;;;;;;8.03;2.77;;;15.20;99.90;;;;;;5029943;28;20457;-71
2022/05/13 06:02:56;;;;;;;10.93;3.30;;;15.30;99.90;;;;;;5030148;28;20463;-72
2022/05/13 06:05:24;;;;;;;7.90;2.60;;;15.50;99.90;;;;;;5024670;28;20444;-72
2022/05/13 06:07:55;;;;;;;9.10;2.57;;;15.80;99.90;;;;;;5031665;28;20575;-72
2022/05/13 06:10:23;;;;;;;12.63;2.67;;;16.00;99.90;;;;;;5039279;28;20452;-72
2022/05/13 06:12:49;;;;;;;12.03;2.60;;;16.30;99.90;;;;;;5039918;28;20485;-72
2022/05/13 06:15:16;;;;;;;5.57;2.10;;;16.30;99.90;;;;;;5037558;28;20453;-71
2022/05/13 06:17:44;;;;;;;7.20;2.00;;;16.40;99.90;;;;;;5042571;28;20453;-72
2022/05/13 06:20:13;;;;;;;6.23;2.33;;;16.50;99.90;;;;;;5050369;28;20448;-72
2022/05/13 06:22:40;;;;;;;4.60;2.10;;;16.50;99.90;;;;;;5045259;28;20460;-76
2022/05/13 06:25:10;;;;;;;3.27;2.43;;;16.40;99.90;;;;;;5038772;28;20809;-79
2022/05/13 06:27:38;;;;;;;9.67;2.80;;;16.70;99.90;;;;;;5028710;28;20554;-80
2022/05/13 06:30:06;;;;;;;3.40;1.90;;;17.00;99.90;;;;;;5029949;28;20464;-78
2022/05/13 06:32:33;;;;;;;3.43;2.13;;;17.20;99.90;;;;;;5022126;28;21074;-79
2022/05/13 06:34:59;;;;;;;4.20;2.30;;;17.20;99.90;;;;;;5048960;28;20503;-77
2022/05/13 06:37:26;;;;;;;6.20;2.37;;;17.20;99.90;;;;;;5038863;28;20959;-72
2022/05/13 06:39:53;;;;;;;5.83;2.13;;;17.50;99.90;;;;;;5047747;28;20452;-72
2022/05/13 06:42:21;;;;;;;9.87;2.60;;;17.60;99.90;;;;;;5049738;28;20543;-72
2022/05/13 06:44:47;;;;;;;6.43;2.67;;;17.70;99.90;;;;;;5047491;28;20423;-72
2022/05/13 06:47:15;;;;;;;6.37;2.30;;;17.50;99.90;;;;;;5035123;28;20534;-72
2022/05/13 06:49:41;;;;;;;10.03;2.37;;;17.60;99.90;;;;;;5034119;28;20481;-71
2022/05/13 06:52:08;;;;;;;6.43;2.37;;;17.70;99.90;;;;;;5032990;28;20476;-71
2022/05/13 06:54:35;;;;;;;5.57;2.20;;;17.80;99.90;;;;;;5033594;28;21120;-72
2022/05/13 06:57:01;;;;;;;14.03;3.13;;;17.90;99.90;;;;;;5030223;28;20847;-72
2022/05/13 06:59:29;;;;;;;8.17;2.77;;;17.80;99.90;;;;;;5022082;28;20449;-72
2022/05/13 07:01:56;;;;;;;10.50;2.60;;;17.90;99.90;;;;;;5032559;28;20477;-72
2022/05/13 07:04:23;;;;;;;10.53;2.90;;;17.80;99.90;;;;;;5032393;28;20950;-72
2022/05/13 07:06:49;;;;;;;9.43;2.60;;;17.80;99.90;;;;;;5030201;28;20507;-72
2022/05/13 07:09:16;;;;;;;6.50;2.30;;;17.90;99.90;;;;;;5022077;28;20508;-72
2022/05/13 07:11:44;;;;;;;5.50;2.60;;;17.90;99.90;;;;;;5032452;28;20455;-72
2022/05/13 07:14:11;;;;;;;7.63;2.70;;;17.90;99.90;;;;;;5032055;28;20428;-72
2022/05/13 07:16:39;;;;;;;5.90;2.77;;;17.70;99.90;;;;;;5031322;28;20428;-72
2022/05/13 07:19:06;;;;;;;4.13;2.50;;;17.60;99.90;;;;;;5032537;28;20954;-71
2022/05/13 07:21:33;;;;;;;6.83;3.70;;;17.50;99.90;;;;;;5029652;28;20607;-72
2022/05/13 07:24:00;;;;;;;7.83;2.80;;;17.50;99.90;;;;;;5027289;28;20432;-72
2022/05/13 07:26:26;;;;;;;9.43;2.90;;;17.90;99.90;;;;;;5029323;28;20432;-71
2022/05/13 07:28:53;;;;;;;7.70;3.10;;;18.20;99.90;;;;;;5029146;28;20460;-72
2022/05/13 07:31:20;;;;;;;13.40;3.40;;;17.80;99.90;;;;;;5028763;28;20447;-72
2022/05/13 07:33:48;;;;;;;4.27;2.87;;;17.80;99.90;;;;;;5028268;28;20431;-72
2022/05/13 07:36:14;;;;;;;8.57;2.70;;;18.00;99.90;;;;;;5028619;28;20535;-72
2022/05/13 07:41:16;;;;;;;5.50;2.73;;;18.20;99.90;;;;;;5029330;28;20423;-72
2022/05/13 07:41:27;;;;;;;4.27;2.83;;;18.30;99.90;;;;;;5029162;28;20442;-71
2022/05/13 07:43:54;;;;;;;8.80;3.20;;;18.20;99.90;;;;;;5028213;28;20424;-72
2022/05/13 07:46:20;;;;;;;12.80;3.20;;;18.00;99.90;;;;;;5027269;28;20566;-72
2022/05/13 07:48:50;;;;;;;7.47;2.50;;;17.80;99.90;;;;;;5022534;28;21189;-72
2022/05/13 07:51:17;;;;;;;4.50;2.80;;;18.10;99.90;;;;;;5027549;28;20246;-72
2022/05/13 07:53:43;;;;;;;7.93;3.17;;;18.20;99.90;;;;;;5027287;28;20424;-72
2022/05/13 07:56:11;;;;;;;6.00;2.63;;;18.30;99.90;;;;;;5027737;28;20424;-72
2022/05/13 07:58:38;;;;;;;10.27;2.80;;;18.40;99.90;;;;;;5028362;28;20479;-72
2022/05/13 08:01:04;;;;;;;7.30;2.57;;;18.10;99.90;;;;;;5027076;28;20491;-72
2022/05/13 08:03:31;;;;;;;6.40;2.87;;;17.90;99.90;;;;;;5027990;28;20453;-72
2022/05/13 08:06:04;;;;;;;12.10;3.27;;;18.10;99.90;;;;;;5027764;28;20457;-72
2022/05/13 08:08:34;;;;;;;8.00;3.33;;;18.20;99.90;;;;;;5028930;28;21111;-72
2022/05/13 08:11:03;;;;;;;7.57;2.97;;;18.10;99.90;;;;;;5029207;28;20550;-72
2022/05/13 08:13:31;;;;;;;10.60;2.70;;;18.40;99.90;;;;;;5028533;28;20459;-72
2022/05/13 08:15:57;;;;;;;6.93;2.30;;;18.80;99.90;;;;;;5028345;28;20481;-72
2022/05/13 08:18:24;;;;;;;5.10;2.47;;;19.00;99.90;;;;;;5028738;28;21991;-72
2022/05/13 08:20:52;;;;;;;16.97;2.80;;;19.00;99.90;;;;;;5028699;28;20497;-72
2022/05/13 08:23:21;;;;;;;10.43;2.57;;;18.70;99.90;;;;;;5027591;28;20453;-72
2022/05/13 08:25:48;;;;;;;4.97;2.57;;;18.70;99.90;;;;;;5028345;28;20895;-72
2022/05/13 08:28:17;;;;;;;10.80;2.53;;;18.60;99.90;;;;;;5028663;28;20404;-72
2022/05/13 08:30:44;;;;;;;10.63;2.83;;;18.70;99.90;;;;;;5027696;28;20503;-72
2022/05/13 08:33:11;;;;;;;8.30;2.80;;;19.00;99.90;;;;;;5027831;28;21573;-70
2022/05/13 08:35:40;;;;;;;13.77;4.00;;;18.70;99.90;;;;;;5028279;28;20424;-71
2022/05/13 08:38:08;;;;;;;9.50;2.60;;;18.50;99.90;;;;;;5027937;28;20428;-70
2022/05/13 08:40:56;;;;;;;11.45;2.38;;;18.80;99.90;;;;;;5025596;28;20458;-71
2022/05/13 08:43:25;;;;;;;7.17;3.13;;;19.10;99.90;;;;;;5028388;28;20627;-71
2022/05/13 08:45:57;;;;;;;9.60;2.80;;;19.20;99.90;;;;;;5026898;28;21006;-71
2022/05/13 08:48:31;;;;;;;8.03;2.70;;;18.70;99.90;;;;;;5029146;28;21874;-70
2022/05/13 08:51:05;;;;;;;6.63;2.43;;;18.60;99.90;;;;;;5026858;28;20443;-71
2022/05/13 08:53:35;;;;;;;7.10;2.53;;;18.60;99.90;;;;;;5025900;28;20461;-71
2022/05/13 08:56:08;;;;;;;9.60;2.70;;;18.60;99.90;;;;;;5027973;28;20435;-71
2022/05/13 08:58:40;;;;;;;8.10;2.63;;;18.50;99.90;;;;;;5026751;28;20445;-71
2022/05/13 09:01:12;;;;;;;7.00;2.83;;;18.50;99.90;;;;;;5026923;28;20473;-71
2022/05/13 09:03:41;;;;;;;6.07;2.60;;;18.40;99.90;;;;;;5026580;28;20523;-71
2022/05/13 09:06:15;;;;;;;8.27;2.77;;;18.30;99.90;;;;;;5026899;28;20523;-71
2022/05/13 09:08:43;;;;;;;7.10;2.83;;;18.20;99.90;;;;;;5027962;28;20487;-71
2022/05/13 09:11:20;;;;;;;5.20;2.60;;;18.60;99.90;;;;;;5028241;28;20468;-72
2022/05/13 09:14:01;;;;;;;3.87;2.50;;;18.80;99.90;;;;;;5025286;28;20444;-71
2022/05/13 09:16:42;;;;;;;3.90;1.87;;;18.90;99.90;;;;;;5026947;28;20458;-70
2022/05/13 09:19:14;;;;;;;3.67;2.10;;;19.10;99.90;;;;;;5026752;28;20470;-72
2022/05/13 09:21:43;;;;;;;4.90;1.97;;;19.50;99.90;;;;;;5027514;28;20990;-71
2022/05/13 09:24:10;;;;;;;14.67;2.30;;;19.60;99.90;;;;;;5026933;28;20439;-71
2022/05/13 09:26:38;;;;;;;8.13;2.20;;;19.70;99.90;;;;;;5028115;28;20431;-71
2022/05/13 09:29:10;;;;;;;6.37;2.53;;;19.90;99.90;;;;;;5026396;28;20466;-71
2022/05/13 09:31:39;;;;;;;6.63;2.30;;;19.90;99.90;;;;;;5026061;28;21020;-71
2022/05/13 09:34:29;;;;;;;5.53;1.90;;;19.90;99.90;;;;;;5027095;28;20482;-71
2022/05/13 09:37:12;;;;;;;6.03;2.00;;;19.90;99.90;;;;;;5023196;28;20465;-71
2022/05/13 09:39:44;;;;;;;4.83;1.80;;;20.10;99.90;;;;;;5025702;28;20769;-71
2022/05/13 09:42:26;;;;;;;5.50;2.20;;;20.40;99.90;;;;;;5027556;28;21113;-71
2022/05/13 09:45:09;;;;;;;4.70;2.13;;;20.60;99.90;;;;;;5026528;28;20432;-72
2022/05/13 09:47:36;;;;;;;6.33;2.10;;;20.50;99.90;;;;;;5026666;28;20877;-71
2022/05/13 09:50:03;;;;;;;6.03;2.30;;;20.10;99.90;;;;;;5025155;28;20456;-71
2022/05/13 09:52:34;;;;;;;7.47;2.30;;;20.20;99.90;;;;;;5025161;28;20523;-71
2022/05/13 09:55:13;;;;;;;7.43;2.00;;;20.50;99.90;;;;;;5025231;28;20465;-71
2022/05/13 09:57:41;;;;;;;3.83;1.87;;;20.70;99.90;;;;;;5026566;28;20835;-71
2022/05/13 10:00:15;;;;;;;6.90;2.00;;;20.70;99.90;;;;;;5023907;28;20515;-71
2022/05/13 10:02:45;;;;;;;6.03;1.87;;;20.90;99.90;;;;;;5025068;28;20481;-72
2022/05/13 10:05:16;;;;;;;4.53;1.80;;;21.20;99.90;;;;;;5026163;28;20464;-71
2022/05/13 10:07:54;;;;;;;3.93;1.77;;;21.00;99.90;;;;;;5026077;28;20457;-72
2022/05/13 10:15:58;;;;;;;7.03;1.87;;;21.20;99.90;;;;;;5031196;28;20452;-72
2022/05/13 10:18:29;;;;;;;3.40;1.77;;;20.90;99.50;;;;;;5030189;28;20461;-71
2022/05/13 10:21:00;;;;;;;4.23;1.83;;;20.80;99.90;;;;;;5030830;28;20843;-71
2022/05/13 10:23:31;;;;;;;3.10;2.00;;;20.30;99.40;;;;;;5030345;28;20942;-71
2022/05/13 10:26:01;;;;;;;1.63;1.50;;;20.30;98.60;;;;;;5031300;28;20441;-71
2022/05/13 10:28:35;;;;;;;6.90;1.87;;;19.90;98.80;;;;;;5028465;28;21929;-71
2022/05/13 10:31:08;;;;;;;2.13;1.63;;;19.80;98.70;;;;;;5030673;28;21040;-71
2022/05/13 10:33:41;;;;;;;4.90;2.13;;;19.40;98.50;;;;;;5030257;28;20445;-71
2022/05/13 10:36:12;;;;;;;4.70;1.53;;;19.40;99.90;;;;;;5030947;28;20440;-71
2022/05/13 10:38:43;;;;;;;4.30;1.47;;;19.90;99.80;;;;;;5026200;28;20478;-72
2022/05/13 10:41:23;;;;;;;4.53;1.50;;;20.40;98.40;;;;;;5031098;28;20477;-71
2022/05/13 10:43:58;;;;;;;6.60;1.47;;;20.40;98.80;;;;;;5030490;28;20457;-73
2022/05/13 10:46:31;;;;;;;5.60;1.53;;;20.30;97.70;;;;;;5030690;28;20460;-71
2022/05/13 10:48:58;;;;;;;4.27;1.67;;;20.30;97.80;;;;;;5029140;28;20442;-72
2022/05/13 10:51:31;;;;;;;9.73;1.77;;;20.60;99.10;;;;;;5030225;28;20785;-71
2022/05/13 10:54:26;;;;;;;3.97;1.50;;;20.90;98.30;;;;;;5030459;28;20424;-72
2022/05/13 10:56:59;;;;;;;2.63;1.63;;;21.40;98.30;;;;;;5027118;28;20486;-71
2022/05/13 10:59:38;;;;;;;1.63;1.40;;;21.90;97.40;;;;;;5029621;28;20462;-72
2022/05/13 11:02:23;;;;;;;3.37;1.80;;;22.10;97.00;;;;;;5030274;28;21000;-72
2022/05/13 11:04:58;;;;;;;5.10;1.80;;;22.30;97.60;;;;;;5012264;28;20453;-71
2022/05/13 11:07:30;;;;;;;3.40;1.47;;;22.60;97.60;;;;;;5029458;28;20449;-72
2022/05/13 11:10:03;;;;;;;5.23;1.50;;;22.90;96.00;;;;;;5029256;28;20958;-72
2022/05/13 11:12:40;;;;;;;7.13;1.70;;;22.90;96.90;;;;;;5029693;28;20507;-72
2022/05/13 11:15:21;;;;;;;10.90;1.53;;;23.00;94.10;;;;;;5029225;28;21023;-72
2022/05/13 11:17:55;;;;;;;3.77;1.70;;;23.00;94.80;;;;;;5031215;28;21086;-72
2022/05/13 11:20:30;;;;;;;3.40;1.77;;;22.20;93.50;;;;;;5029420;28;20533;-71
2022/05/13 11:23:08;;;;;;;5.57;1.83;;;21.60;93.60;;;;;;5030097;28;20475;-71
2022/05/13 11:25:56;;;;;;;4.13;1.43;;;21.70;95.00;;;;;;5029402;28;21563;-72
2022/05/13 11:28:46;;;;;;;5.00;1.77;;;21.80;93.60;;;;;;5030191;28;20457;-71
2022/05/13 11:31:29;;;;;;;4.40;1.30;;;21.40;94.10;;;;;;5030099;28;21725;-71
2022/05/13 11:34:05;;;;;;;4.70;1.70;;;20.90;94.60;;;;;;5029841;28;20603;-70
2022/05/13 11:36:41;;;;;;;5.43;1.60;;;20.90;95.70;;;;;;5028951;28;20500;-70
2022/05/13 11:39:38;;;;;;;3.87;1.53;;;20.90;94.40;;;;;;5027748;28;21020;-71
2022/05/13 11:42:16;;;;;;;1.93;1.70;;;21.40;95.30;;;;;;5029365;28;20557;-71
2022/05/13 11:44:51;;;;;;;3.30;1.60;;;22.10;95.00;;;;;;5028567;28;20452;-70
2022/05/13 11:47:28;;;;;;;2.97;1.40;;;22.40;93.30;;;;;;5029673;28;20686;-71
2022/05/13 11:49:58;;;;;;;7.93;1.90;;;22.30;94.10;;;;;;5028765;28;20588;-71
2022/05/13 11:52:44;;;;;;;1.93;1.43;;;22.40;93.80;;;;;;5028836;28;20847;-71
2022/05/13 11:55:19;;;;;;;7.23;1.43;;;22.50;93.90;;;;;;5028713;28;20533;-71
2022/05/13 11:57:48;;;;;;;2.90;1.20;;;22.50;94.70;;;;;;5030011;28;20722;-73
2022/05/13 12:00:36;;;;;;;4.50;1.63;;;23.00;94.30;;;;;;5027594;28;20457;-75
2022/05/13 12:03:15;;;;;;;4.20;1.60;;;23.70;95.80;;;;;;5029721;28;20453;-73
2022/05/13 12:05:57;;;;;;;7.97;1.60;;;24.50;94.80;;;;;;5028608;28;20453;-73
2022/05/13 12:08:30;;;;;;;6.33;1.77;;;24.60;91.50;;;;;;5028611;28;20484;-74
2022/05/13 12:11:12;;;;;;;3.47;1.60;;;24.60;91.60;;;;;;5027026;28;21001;-73
2022/05/13 12:13:46;;;;;;;3.77;1.77;;;24.50;91.50;;;;;;5025813;28;20449;-73
2022/05/13 12:16:33;;;;;;;2.33;1.40;;;24.50;92.40;;;;;;5028555;28;20543;-72
2022/05/13 12:19:28;;;;;;;4.67;1.57;;;24.60;92.60;;;;;;5027716;28;20445;-74
2022/05/13 12:22:02;;;;;;;4.40;1.50;;;24.40;92.00;;;;;;5025884;28;20524;-74
2022/05/13 12:24:30;;;;;;;2.97;1.40;;;24.50;92.30;;;;;;5027148;28;20817;-73
2022/05/13 12:27:28;;;;;;;3.73;1.57;;;24.70;92.90;;;;;;5028481;28;20499;-73
2022/05/13 12:30:02;;;;;;;3.50;1.53;;;24.50;91.30;;;;;;5027375;28;20531;-74
2022/05/13 12:32:47;;;;;;;4.17;1.80;;;24.40;91.60;;;;;;5027712;28;20465;-73
2022/05/13 12:38:10;;;;;;;4.90;1.50;;;24.00;91.70;;;;;;5028073;28;20488;-74
2022/05/13 12:40:45;;;;;;;4.07;1.53;;;24.40;92.30;;;;;;5025387;28;20961;-74
2022/05/13 12:43:19;;;;;;;3.97;1.30;;;24.20;92.30;;;;;;5027887;28;20515;-74
2022/05/13 12:46:13;;;;;;;4.00;1.50;;;24.60;92.10;;;;;;5027126;28;20453;-74
2022/05/13 12:49:02;;;;;;;5.50;1.60;;;24.70;91.60;;;;;;5027452;28;20842;-73
2022/05/13 12:51:41;;;;;;;3.83;1.43;;;24.60;90.00;;;;;;5026984;28;20865;-74
2022/05/13 12:54:08;;;;;;;6.67;1.70;;;24.20;90.60;;;;;;5027406;28;20445;-74
2022/05/13 12:56:39;;;;;;;3.57;1.20;;;23.50;90.40;;;;;;5027140;28;20450;-75
2022/05/13 12:59:12;;;;;;;7.80;1.60;;;22.70;91.50;;;;;;5027008;28;20539;-73
2022/05/13 13:01:42;;;;;;;6.10;1.90;;;22.70;92.60;;;;;;5026725;28;20500;-72
2022/05/13 13:04:09;;;;;;;4.80;1.90;;;22.80;91.40;;;;;;5027311;28;20511;-74
2022/05/13 13:06:43;;;;;;;4.53;1.70;;;23.10;92.90;;;;;;5027032;28;20962;-74
2022/05/13 13:09:20;;;;;;;5.00;1.60;;;23.50;92.30;;;;;;5027346;28;20463;-74
2022/05/13 13:11:54;;;;;;;5.17;1.60;;;23.70;92.10;;;;;;5027867;28;20516;-75
2022/05/13 13:14:33;;;;;;;5.07;2.03;;;23.90;91.50;;;;;;5027198;28;20465;-75
2022/05/13 13:17:04;;;;;;;5.73;1.70;;;24.10;91.00;;;;;;5026098;28;21004;-75
2022/05/13 13:19:32;;;;;;;9.50;1.50;;;24.00;90.70;;;;;;5025966;28;20457;-73
2022/05/13 13:22:03;;;;;;;4.23;1.60;;;23.50;91.10;;;;;;5021953;28;20548;-71
2022/05/13 13:24:32;;;;;;;4.23;1.70;;;23.80;91.20;;;;;;5025556;28;20577;-74